createdAt,value
2022-09-20T00:03:43.297Z,100277.38
2022-09-20T00:07:45.625Z,100279.06
2022-09-20T00:11:47.398Z,100287.56
2022-09-20T00:15:49.016Z,100281.81
2022-09-20T00:19:50.547Z,100279.06
2022-09-20T00:23:52.746Z,100288.63
2022-09-20T00:27:54.308Z,100288.88
2022-09-20T00:31:56.030Z,100290.53
2022-09-20T00:35:58.905Z,100293.09
2022-09-20T00:40:00.988Z,100289.25
2022-09-20T00:44:04.000Z,100288.88
2022-09-20T00:48:24.401Z,100287.91
2022-09-20T00:52:27.636Z,100283.53
2022-09-20T00:56:36.311Z,100279.81
2022-09-20T01:00:39.091Z,100284.38
2022-09-20T01:04:43.096Z,100289.00
2022-09-20T01:08:50.681Z,100294.91
2022-09-20T01:12:53.927Z,100287.00
2022-09-20T01:16:57.679Z,100295.84
2022-09-20T01:21:01.207Z,100297.41
2022-09-20T01:25:14.786Z,100290.72
2022-09-20T01:29:41.504Z,100285.75
2022-09-20T01:33:50.145Z,100290.16
2022-09-20T01:38:33.867Z,100287.72
2022-09-20T01:42:39.555Z,100294.84
2022-09-20T01:46:43.116Z,100300.31
2022-09-20T01:51:28.210Z,100298.13
2022-09-20T01:55:58.396Z,100293.16
2022-09-20T02:00:24.045Z,100295.16
2022-09-20T02:04:44.446Z,100284.47
2022-09-20T02:09:11.913Z,100288.13
2022-09-20T02:13:33.344Z,100283.56
2022-09-20T02:17:54.040Z,100277.91
2022-09-20T02:22:25.725Z,100292.56
2022-09-20T02:26:51.792Z,100291.34
2022-09-20T02:31:19.236Z,100295.38
2022-09-20T02:35:36.044Z,100293.31
2022-09-20T02:39:48.908Z,100294.00
2022-09-20T02:44:09.201Z,100289.41
2022-09-20T02:48:10.968Z,100297.25
2022-09-20T02:52:26.218Z,100293.03
2022-09-20T02:56:55.643Z,100285.88
2022-09-20T03:01:17.207Z,100286.78
2022-09-20T03:05:27.391Z,100291.66
2022-09-20T03:09:44.238Z,100299.06
2022-09-20T03:14:01.827Z,100295.69
2022-09-20T03:18:25.053Z,100297.00
2022-09-20T03:22:44.919Z,100310.13
2022-09-20T03:27:05.365Z,100310.78
2022-09-20T03:31:47.644Z,100321.16
2022-09-20T03:36:23.099Z,100313.97
2022-09-20T03:40:50.687Z,100320.78
2022-09-20T03:45:07.496Z,100311.91
2022-09-20T03:49:48.071Z,100307.72
2022-09-20T03:54:17.208Z,100313.66
2022-09-20T03:58:34.830Z,100324.63
2022-09-20T04:02:42.037Z,100325.72
2022-09-20T04:07:05.388Z,100330.34
2022-09-20T04:11:12.985Z,100327.16
2022-09-20T04:15:23.802Z,100331.00
2022-09-20T04:19:41.471Z,100330.59
2022-09-20T04:23:52.289Z,100332.28
2022-09-20T04:28:02.974Z,100328.03
2022-09-20T04:32:43.781Z,100333.31
2022-09-20T04:37:06.232Z,100342.41
2022-09-20T04:41:28.282Z,100343.88
2022-09-20T04:46:00.301Z,100349.59
2022-09-20T04:50:23.888Z,100340.72
2022-09-20T04:54:46.184Z,100348.81
2022-09-20T04:58:49.032Z,100351.16
2022-09-20T05:03:11.220Z,100356.41
2022-09-20T05:07:22.259Z,100360.22
2022-09-20T05:11:47.018Z,100364.66
2022-09-20T05:15:55.209Z,100360.81
2022-09-20T05:20:19.046Z,100365.28
2022-09-20T05:24:40.991Z,100360.38
2022-09-20T05:29:16.763Z,100368.41
2022-09-20T05:33:37.505Z,100372.81
2022-09-20T05:37:42.086Z,100366.94
2022-09-20T05:41:54.670Z,100361.91
2022-09-20T05:46:47.922Z,100372.88
2022-09-20T05:51:03.533Z,100388.50
2022-09-20T05:55:11.150Z,100398.22
2022-09-20T05:59:27.619Z,100399.00
2022-09-20T06:03:39.509Z,100407.81
2022-09-20T06:07:45.782Z,100412.72
2022-09-20T06:12:14.756Z,100401.91
2022-09-20T06:16:32.566Z,100406.47
2022-09-20T06:21:13.168Z,100403.81
2022-09-20T06:25:20.209Z,100404.34
2022-09-20T06:29:33.616Z,100400.88
2022-09-20T06:33:50.104Z,100401.22
2022-09-20T06:38:22.690Z,100396.94
2022-09-20T06:42:27.153Z,100398.06
2022-09-20T06:46:31.627Z,100399.75
2022-09-20T06:50:36.319Z,100404.72
2022-09-20T06:54:38.418Z,100411.44
2022-09-20T06:58:40.116Z,100408.44
2022-09-20T07:02:44.542Z,100405.94
2022-09-20T07:06:46.150Z,100419.00
2022-09-20T07:10:48.252Z,100413.59
2022-09-20T07:14:50.654Z,100419.84
2022-09-20T07:18:52.697Z,100428.84
2022-09-20T07:22:54.267Z,100424.41
2022-09-20T07:27:01.695Z,100427.03
2022-09-20T07:31:03.242Z,100433.59
2022-09-20T07:35:05.449Z,100433.25
2022-09-20T07:39:08.374Z,100447.81
2022-09-20T07:43:09.999Z,100438.91
2022-09-20T07:47:14.111Z,100456.88
2022-09-20T07:51:15.691Z,100450.91
2022-09-20T07:55:17.707Z,100463.50
2022-09-20T07:59:19.444Z,100459.41
2022-09-20T08:03:21.688Z,100456.53
2022-09-20T08:07:23.759Z,100456.53
2022-09-20T08:11:28.685Z,100462.41
2022-09-20T08:15:31.874Z,100462.47
2022-09-20T08:19:33.468Z,100464.63
2022-09-20T08:23:39.370Z,100458.34
2022-09-20T08:27:40.934Z,100468.09
2022-09-20T08:31:42.949Z,100466.44
2022-09-20T08:35:49.135Z,100465.66
2022-09-20T08:39:58.841Z,100467.50
2022-09-20T08:44:11.726Z,100477.25
2022-09-20T08:48:16.877Z,100469.28
2022-09-20T08:52:25.418Z,100476.34
2022-09-20T08:56:32.645Z,100474.13
2022-09-20T09:00:36.869Z,100471.41
2022-09-20T09:04:38.416Z,100470.28
2022-09-20T09:08:40.417Z,100465.72
2022-09-20T09:12:48.788Z,100466.63
2022-09-20T09:16:50.613Z,100463.53
2022-09-20T09:20:52.223Z,100462.66
2022-09-20T09:25:17.272Z,100468.00
2022-09-20T09:29:21.377Z,100464.84
2022-09-20T09:33:31.043Z,100455.63
2022-09-20T09:37:32.653Z,100452.72
2022-09-20T09:41:35.995Z,100453.13
2022-09-20T09:45:41.025Z,100439.88
2022-09-20T09:50:00.358Z,100444.63
2022-09-20T09:54:04.961Z,100438.44
2022-09-20T09:58:22.806Z,100434.13
2022-09-20T10:02:43.245Z,100434.06
2022-09-20T10:06:57.418Z,100441.72
2022-09-20T10:11:38.006Z,100433.47
2022-09-20T10:15:56.538Z,100433.94
2022-09-20T10:20:07.721Z,100423.06
2022-09-20T10:24:32.144Z,100418.28
2022-09-20T10:28:48.524Z,100413.75
2022-09-20T10:33:14.473Z,100414.63
2022-09-20T10:37:40.846Z,100414.34
2022-09-20T10:42:38.963Z,100414.09
2022-09-20T10:46:52.941Z,100415.16
2022-09-20T10:51:00.312Z,100417.34
2022-09-20T10:55:05.114Z,100424.56
2022-09-20T10:59:42.305Z,100421.53
2022-09-20T11:04:16.145Z,100418.81
2022-09-20T11:08:26.358Z,100419.66
2022-09-20T11:12:39.759Z,100419.09
2022-09-20T11:16:52.937Z,100422.41
2022-09-20T11:21:28.444Z,100432.41
2022-09-20T11:25:44.530Z,100421.44
2022-09-20T11:29:53.527Z,100427.78
2022-09-20T11:34:14.350Z,100424.56
2022-09-20T11:38:26.195Z,100427.88
2022-09-20T11:42:36.523Z,100442.47
2022-09-20T11:47:12.751Z,100441.63
2022-09-20T11:51:43.628Z,100446.78
2022-09-20T11:55:59.056Z,100445.47
2022-09-20T12:00:04.241Z,100441.69
2022-09-20T12:04:34.722Z,100452.97
2022-09-20T12:08:42.193Z,100448.44
2022-09-20T12:12:47.168Z,100442.97
2022-09-20T12:16:50.161Z,100439.81
2022-09-20T12:21:16.495Z,100429.91
2022-09-20T12:25:39.580Z,100424.38
2022-09-20T12:30:03.416Z,100426.31
2022-09-20T12:34:25.502Z,100423.63
2022-09-20T12:38:31.249Z,100412.13
2022-09-20T12:42:33.977Z,100413.72
2022-09-20T12:46:41.631Z,100412.00
2022-09-20T12:51:02.026Z,100413.88
2022-09-20T12:55:10.226Z,100403.78
2022-09-20T12:59:31.043Z,100412.50
2022-09-20T13:03:39.180Z,100416.13
2022-09-20T13:07:46.997Z,100421.66
2022-09-20T13:11:56.987Z,100418.25
2022-09-20T13:16:01.308Z,100410.25
2022-09-20T13:20:04.079Z,100402.72
2022-09-20T13:24:08.000Z,100394.34
2022-09-20T13:28:29.821Z,100396.44
2022-09-20T13:32:32.321Z,100407.75
2022-09-20T13:36:36.161Z,100414.50
2022-09-20T13:40:42.508Z,100411.13
2022-09-20T13:44:44.302Z,100412.09
2022-09-20T13:48:53.554Z,100400.47
2022-09-20T13:52:58.130Z,100418.13
2022-09-20T13:57:10.862Z,100421.88
2022-09-20T14:01:31.086Z,100410.06
2022-09-20T14:05:33.534Z,100410.41
2022-09-20T14:09:39.462Z,100416.59
2022-09-20T14:13:43.941Z,100428.84
2022-09-20T14:17:46.371Z,100416.88
2022-09-20T14:21:48.835Z,100418.25
2022-09-20T14:26:29.332Z,100417.63
2022-09-20T14:30:37.462Z,100407.13
2022-09-20T14:34:41.419Z,100402.66
2022-09-20T14:38:45.181Z,100402.50
2022-09-20T14:42:50.646Z,100405.13
2022-09-20T14:46:52.194Z,100395.28
2022-09-20T14:51:12.730Z,100393.25
2022-09-20T14:55:14.360Z,100386.91
2022-09-20T14:59:21.283Z,100390.31
2022-09-20T15:03:26.674Z,100390.66
2022-09-20T15:07:28.840Z,100390.69
2022-09-20T15:11:30.559Z,100384.56
2022-09-20T15:15:32.354Z,100383.47
2022-09-20T15:19:34.583Z,100384.25
2022-09-20T15:23:37.035Z,100384.47
2022-09-20T15:27:38.551Z,100388.38
2022-09-20T15:31:42.394Z,100383.91
2022-09-20T15:35:45.430Z,100381.44
2022-09-20T15:39:47.006Z,100378.66
2022-09-20T15:43:49.998Z,100380.06
2022-09-20T15:47:55.476Z,100377.28
2022-09-20T15:51:57.284Z,100381.94
2022-09-20T15:56:02.805Z,100390.78
2022-09-20T16:00:05.312Z,100379.59
2022-09-20T16:04:15.089Z,100381.44
2022-09-20T16:08:17.278Z,100379.97
2022-09-20T16:12:20.516Z,100386.66
2022-09-20T16:16:22.719Z,100388.97
2022-09-20T16:20:24.484Z,100391.47
2022-09-20T16:24:29.521Z,100399.81
2022-09-20T16:28:31.312Z,100398.66
2022-09-20T16:32:32.859Z,100403.22
2022-09-20T16:36:34.602Z,100413.41
2022-09-20T16:40:36.791Z,100410.81
2022-09-20T16:44:40.613Z,100411.59
2022-09-20T16:48:42.616Z,100404.81
2022-09-20T16:52:44.922Z,100418.22
2022-09-20T16:56:48.318Z,100417.75
2022-09-20T17:00:50.056Z,100416.06
2022-09-20T17:04:52.017Z,100426.63
2022-09-20T17:08:58.889Z,100434.34
2022-09-20T17:13:00.838Z,100436.50
2022-09-20T17:17:02.632Z,100447.22
2022-09-20T17:21:09.204Z,100449.28
2022-09-20T17:25:10.988Z,100452.22
2022-09-20T17:29:17.536Z,100460.97
2022-09-20T17:33:19.179Z,100458.41
2022-09-20T17:37:21.233Z,100460.00
2022-09-20T17:41:23.556Z,100463.31
2022-09-20T17:45:25.180Z,100474.03
2022-09-20T17:49:27.779Z,100477.56
2022-09-20T17:53:34.092Z,100477.56
2022-09-20T17:57:37.274Z,100477.31
2022-09-20T18:01:40.304Z,100485.72
2022-09-20T18:05:42.125Z,100487.78
2022-09-20T18:09:43.718Z,100489.78
2022-09-20T18:13:45.371Z,100494.94
2022-09-20T18:17:49.273Z,100493.28
2022-09-20T18:21:54.143Z,100500.00
2022-09-20T18:26:14.766Z,100503.72
2022-09-20T18:30:17.878Z,100508.28
2022-09-20T18:34:24.748Z,100514.16
2022-09-20T18:38:26.271Z,100513.56
2022-09-20T18:42:29.171Z,100520.91
2022-09-20T18:46:46.525Z,100518.22
2022-09-20T19:06:21.369Z,100540.25
2022-09-20T19:11:06.247Z,100537.22
2022-09-20T19:15:36.620Z,100548.28
2022-09-20T19:19:45.444Z,100554.63
2022-09-20T19:24:05.985Z,100559.31
2022-09-20T19:28:11.468Z,100565.69
2022-09-20T19:32:21.829Z,100566.91
2022-09-20T19:36:25.841Z,100566.41
2022-09-20T19:40:46.226Z,100577.81
2022-09-20T19:45:16.259Z,100579.50
2022-09-20T19:49:32.031Z,100584.44
2022-09-20T19:53:34.146Z,100583.84
2022-09-20T19:57:42.845Z,100579.63
2022-09-20T20:01:45.041Z,100583.09
2022-09-20T20:05:57.383Z,100589.97
2022-09-20T20:10:06.129Z,100595.72
2022-09-20T20:14:34.072Z,100600.63
2022-09-20T20:19:13.325Z,100590.31
2022-09-20T20:23:43.414Z,100592.59
2022-09-20T20:27:45.255Z,100598.44
2022-09-20T20:31:46.960Z,100587.50
2022-09-20T20:35:58.954Z,100597.22
2022-09-20T20:40:01.101Z,100597.09
2022-09-20T20:44:06.315Z,100599.47
2022-09-20T20:48:07.918Z,100600.19
2022-09-20T20:52:09.700Z,100604.88
2022-09-20T20:56:14.617Z,100604.63
2022-09-20T21:00:16.351Z,100617.00
2022-09-20T21:04:18.319Z,100613.00
2022-09-20T21:08:19.860Z,100613.25
2022-09-20T21:12:21.434Z,100623.94
2022-09-20T21:16:28.776Z,100627.63
2022-09-20T21:20:31.084Z,100627.94
2022-09-20T21:24:32.801Z,100631.28
2022-09-20T21:28:36.852Z,100628.69
2022-09-20T21:32:38.455Z,100631.00
2022-09-20T21:36:44.684Z,100634.16
2022-09-20T21:40:46.719Z,100630.72
2022-09-20T21:44:48.271Z,100628.50
2022-09-20T21:48:50.826Z,100629.88
2022-09-20T21:52:53.476Z,100636.09
2022-09-20T21:56:59.398Z,100638.31
2022-09-20T22:01:11.384Z,100635.00
2022-09-20T22:05:13.328Z,100640.81
2022-09-20T22:09:17.204Z,100643.00
2022-09-20T22:13:19.213Z,100645.19
2022-09-20T22:17:20.825Z,100641.44
2022-09-20T22:21:24.882Z,100640.81
2022-09-20T22:25:26.544Z,100638.75
2022-09-20T22:29:28.106Z,100635.59
2022-09-20T22:33:31.144Z,100629.47
2022-09-20T22:37:32.611Z,100634.59
2022-09-20T22:41:35.296Z,100638.00
2022-09-20T22:45:36.812Z,100635.50
2022-09-20T22:49:38.369Z,100631.97
2022-09-20T22:53:41.399Z,100637.97
2022-09-20T22:57:42.894Z,100647.53
2022-09-20T23:01:48.243Z,100642.06
2022-09-20T23:05:49.791Z,100644.66
2022-09-20T23:09:51.472Z,100646.97
2022-09-20T23:13:55.376Z,100640.88
2022-09-20T23:17:56.933Z,100642.19
2022-09-20T23:21:58.584Z,100639.28
2022-09-20T23:26:07.417Z,100639.72
2022-09-20T23:30:09.268Z,100637.56
2022-09-20T23:34:11.327Z,100645.59
2022-09-20T23:38:14.663Z,100644.13
2022-09-20T23:42:16.200Z,100643.06
2022-09-20T23:46:19.662Z,100648.56
2022-09-20T23:50:21.218Z,100636.28
2022-09-20T23:54:22.863Z,100639.03
2022-09-20T23:58:24.524Z,100637.56
